Time;durP1;ratioP1;P1;durP2;ratioP2;P2;SDS_P1;SDS_P2;PMS_P1;PMS_P2;Temp;Humidity;BMP_temperature;BMP_pressure;BME280_temperature;BME280_humidity;BME280_pressure;Samples;Min_cycle;Max_cycle;Signal;HPM_P1;HPM_P2
2022/09/07 00:00:56;;;;;;;31.75;28.83;;;18.90;99.90;;;;;;5043210;28;20048;-45
2022/09/07 00:03:22;;;;;;;32.38;29.30;;;18.90;99.90;;;;;;5044901;28;20518;-45
2022/09/07 00:05:49;;;;;;;31.85;28.77;;;18.90;99.90;;;;;;5026366;28;20574;-45
2022/09/07 00:08:18;;;;;;;32.33;29.67;;;18.90;99.90;;;;;;5044813;28;20071;-46
2022/09/07 00:11:18;;;;;;;30.42;27.77;;;18.90;99.90;;;;;;5042669;28;20540;-45
2022/09/07 00:13:45;;;;;;;33.90;30.73;;;18.90;99.90;;;;;;4963026;28;20132;-47
2022/09/07 00:16:15;;;;;;;32.95;29.75;;;18.90;99.90;;;;;;4962002;28;20405;-45
2022/09/07 00:18:42;;;;;;;31.95;29.10;;;18.80;99.90;;;;;;4953895;28;20089;-45
2022/09/07 00:21:09;;;;;;;32.03;29.13;;;18.80;99.90;;;;;;4962993;28;20058;-46
2022/09/07 00:23:37;;;;;;;33.03;29.92;;;18.90;99.90;;;;;;4963613;28;20067;-46
2022/09/07 00:26:09;;;;;;;31.70;28.58;;;18.80;99.90;;;;;;4962679;28;20220;-45
2022/09/07 00:28:36;;;;;;;34.40;30.77;;;18.80;99.90;;;;;;4962888;28;20137;-45
2022/09/07 00:31:02;;;;;;;34.28;31.08;;;18.80;99.90;;;;;;4961906;28;20525;-46
2022/09/07 00:33:29;;;;;;;34.97;31.48;;;18.80;99.90;;;;;;4962187;28;20065;-45
2022/09/07 00:35:56;;;;;;;34.53;31.27;;;18.90;99.90;;;;;;4962173;28;20141;-45
2022/09/07 00:38:22;;;;;;;36.17;32.47;;;18.90;99.90;;;;;;4962589;28;20077;-46
2022/09/07 00:40:48;;;;;;;35.30;32.08;;;18.90;99.90;;;;;;4962214;28;20530;-46
2022/09/07 00:43:27;;;;;;;32.45;29.27;;;18.90;99.90;;;;;;4963022;28;20078;-48
2022/09/07 00:45:52;;;;;;;32.70;29.48;;;18.80;99.90;;;;;;4962890;28;20657;-45
2022/09/07 00:48:19;;;;;;;33.05;29.90;;;18.80;99.90;;;;;;4953362;28;20174;-45
2022/09/07 00:50:59;;;;;;;31.48;28.55;;;18.80;99.90;;;;;;5042811;28;20908;-45
2022/09/07 00:53:52;;;;;;;29.13;26.25;;;18.70;99.90;;;;;;5044493;28;20064;-45
2022/09/07 00:56:22;;;;;;;28.65;25.92;;;18.60;99.90;;;;;;5048158;28;20079;-45
2022/09/07 00:58:49;;;;;;;23.45;21.23;;;18.60;99.90;;;;;;5044923;28;20045;-45
2022/09/07 01:01:16;;;;;;;21.08;19.08;;;18.50;99.90;;;;;;5044950;28;20049;-47
2022/09/07 01:03:48;;;;;;;18.25;16.45;;;18.40;99.90;;;;;;5044327;28;20057;-46
2022/09/07 01:06:25;;;;;;;16.55;14.77;;;18.40;99.90;;;;;;5043920;28;20128;-45
2022/09/07 01:08:51;;;;;;;17.17;14.18;;;18.30;99.90;;;;;;5044422;28;20088;-46
2022/09/07 01:11:20;;;;;;;16.52;14.10;;;18.30;99.90;;;;;;5042614;28;20052;-45
2022/09/07 01:13:47;;;;;;;20.38;14.60;;;18.30;99.90;;;;;;5043354;28;20110;-45
2022/09/07 01:16:40;;;;;;;18.88;15.15;;;18.20;99.90;;;;;;5043486;28;20072;-47
2022/09/07 01:19:36;;;;;;;23.95;19.67;;;18.20;99.90;;;;;;5043973;28;20049;-46
2022/09/07 01:22:38;;;;;;;20.45;16.65;;;18.10;99.90;;;;;;5034165;28;20053;-46
2022/09/07 01:25:30;;;;;;;16.50;13.90;;;17.90;99.90;;;;;;5043416;28;20045;-47
2022/09/07 01:28:19;;;;;;;20.45;15.30;;;17.90;99.90;;;;;;5024367;28;20528;-45
2022/09/07 01:31:24;;;;;;;18.73;12.90;;;18.00;99.90;;;;;;5023331;28;20555;-45
2022/09/07 01:34:00;;;;;;;21.75;12.30;;;18.00;99.90;;;;;;4961089;28;20134;-45
2022/09/07 01:36:51;;;;;;;12.02;10.60;;;17.90;99.90;;;;;;4946709;28;20541;-46
2022/09/07 01:39:22;;;;;;;15.52;8.43;;;17.90;99.90;;;;;;4962519;28;20463;-45
2022/09/07 01:42:00;;;;;;;16.35;8.63;;;17.80;99.90;;;;;;4962463;28;20051;-45
2022/09/07 01:44:49;;;;;;;10.65;7.47;;;17.80;99.90;;;;;;4962016;28;20062;-44
2022/09/07 01:47:33;;;;;;;8.27;7.47;;;17.80;99.90;;;;;;4978535;28;20572;-45
2022/09/07 01:50:17;;;;;;;11.05;7.70;;;17.70;99.90;;;;;;4980381;28;20090;-46
2022/09/07 01:52:59;;;;;;;11.85;8.10;;;17.70;99.90;;;;;;4970075;28;20058;-47
2022/09/07 01:55:32;;;;;;;10.07;7.85;;;17.60;99.90;;;;;;4980598;28;20088;-47
2022/09/07 01:58:13;;;;;;;11.57;8.45;;;17.50;99.90;;;;;;4981787;28;20092;-45
2022/09/07 02:00:45;;;;;;;11.02;9.52;;;17.40;99.90;;;;;;4981907;28;20050;-46
2022/09/07 02:03:20;;;;;;;12.77;10.25;;;17.30;99.90;;;;;;4981305;28;20129;-46
2022/09/07 02:05:50;;;;;;;11.50;10.18;;;17.20;99.90;;;;;;4980661;28;20064;-45
2022/09/07 02:08:29;;;;;;;12.77;9.68;;;17.20;99.90;;;;;;4964856;28;20497;-45
2022/09/07 02:11:19;;;;;;;13.20;9.95;;;17.20;99.90;;;;;;5023148;28;20057;-45
2022/09/07 02:14:04;;;;;;;12.32;10.85;;;17.20;99.90;;;;;;5043015;28;20127;-46
2022/09/07 02:16:32;;;;;;;11.18;9.85;;;17.20;99.90;;;;;;5025867;28;20110;-46
2022/09/07 02:19:03;;;;;;;12.88;9.50;;;17.20;99.90;;;;;;5027528;28;20800;-46
2022/09/07 02:21:44;;;;;;;11.85;8.15;;;17.20;99.90;;;;;;5045390;28;20071;-48
2022/09/07 02:24:15;;;;;;;8.73;7.88;;;17.20;99.90;;;;;;5042703;28;20047;-46
2022/09/07 02:26:46;;;;;;;11.40;7.78;;;17.20;99.90;;;;;;5042742;28;20479;-46
2022/09/07 02:29:12;;;;;;;14.60;9.05;;;17.20;99.90;;;;;;5024069;28;20132;-45
2022/09/07 02:31:38;;;;;;;11.52;9.85;;;17.30;99.90;;;;;;5041445;28;20045;-46
2022/09/07 02:34:05;;;;;;;12.68;9.93;;;17.20;99.90;;;;;;5041481;28;20106;-46
2022/09/07 02:36:37;;;;;;;11.13;9.25;;;17.20;99.90;;;;;;5041662;28;20060;-46
2022/09/07 02:39:02;;;;;;;12.27;8.90;;;17.20;99.90;;;;;;5042598;28;20055;-46
2022/09/07 02:41:35;;;;;;;12.50;9.70;;;17.20;99.90;;;;;;5041937;28;20863;-45
2022/09/07 02:44:03;;;;;;;;;;;17.20;99.90;;;;;;5042299;28;20414;-45
2022/09/07 02:46:34;;;;;;;11.90;8.98;;;17.20;99.90;;;;;;5023238;28;19931;-45
2022/09/07 02:49:06;;;;;;;10.35;8.13;;;17.20;99.90;;;;;;5040907;28;20483;-46
2022/09/07 02:51:58;;;;;;;10.38;9.25;;;17.20;99.90;;;;;;5040949;28;20143;-46
2022/09/07 02:54:36;;;;;;;11.15;9.30;;;17.20;99.90;;;;;;5032045;28;20485;-47
2022/09/07 02:57:04;;;;;;;10.20;8.90;;;17.20;99.90;;;;;;5041418;28;20049;-45
2022/09/07 02:59:56;;;;;;;8.57;7.70;;;17.20;99.90;;;;;;5041808;28;20083;-45
2022/09/07 03:02:34;;;;;;;10.55;8.20;;;17.20;99.90;;;;;;5030464;28;20580;-45
2022/09/07 03:05:02;;;;;;;7.93;7.07;;;17.20;99.90;;;;;;5040458;28;20574;-45
2022/09/07 03:07:34;;;;;;;9.20;6.57;;;17.10;99.90;;;;;;5041356;28;20526;-45
2022/09/07 03:10:03;;;;;;;7.30;6.57;;;17.10;99.90;;;;;;5040969;28;20646;-46
2022/09/07 03:12:43;;;;;;;8.48;7.38;;;17.20;99.90;;;;;;5041022;28;20303;-45
2022/09/07 03:15:14;;;;;;;9.45;7.55;;;17.20;99.90;;;;;;5040805;28;20443;-46
2022/09/07 03:17:41;;;;;;;9.93;8.02;;;17.20;99.90;;;;;;5041641;28;20102;-46
2022/09/07 03:20:07;;;;;;;9.38;8.27;;;17.20;99.90;;;;;;5040975;28;20534;-46
2022/09/07 03:22:33;;;;;;;9.02;8.18;;;17.30;99.90;;;;;;5040426;28;20051;-46
2022/09/07 03:25:00;;;;;;;9.65;8.75;;;17.20;99.90;;;;;;5038997;28;20044;-47
2022/09/07 03:27:26;;;;;;;10.95;9.02;;;17.20;99.90;;;;;;5022819;28;20055;-45
2022/09/07 03:29:51;;;;;;;8.38;7.43;;;17.20;99.90;;;;;;5040598;28;20052;-46
2022/09/07 03:32:17;;;;;;;9.25;8.27;;;17.20;99.90;;;;;;5042496;28;20401;-45
2022/09/07 03:34:43;;;;;;;10.82;8.38;;;17.20;99.90;;;;;;5041745;28;20081;-46
2022/09/07 03:37:08;;;;;;;8.80;7.95;;;17.10;99.90;;;;;;5048799;28;20557;-45
2022/09/07 03:39:35;;;;;;;9.77;7.82;;;17.10;99.90;;;;;;5049263;28;20572;-49
2022/09/07 03:42:01;;;;;;;11.20;8.23;;;17.00;99.90;;;;;;5049237;28;20404;-46
2022/09/07 03:44:26;;;;;;;10.95;8.25;;;17.00;99.90;;;;;;5050495;28;20048;-46
2022/09/07 03:46:52;;;;;;;8.43;7.40;;;16.90;99.90;;;;;;5048042;28;20049;-50
2022/09/07 03:49:18;;;;;;;8.57;7.72;;;16.90;99.90;;;;;;5047609;28;20506;-47
2022/09/07 03:51:43;;;;;;;8.75;7.95;;;16.90;99.90;;;;;;5047991;28;20405;-45
2022/09/07 03:54:10;;;;;;;8.13;7.32;;;16.90;99.90;;;;;;5047735;28;20609;-46
2022/09/07 03:56:36;;;;;;;9.20;8.40;;;16.90;99.90;;;;;;5047936;28;20045;-46
2022/09/07 03:59:02;;;;;;;8.95;8.07;;;17.00;99.90;;;;;;5048436;28;20048;-45
2022/09/07 04:01:27;;;;;;;9.68;8.73;;;17.00;99.90;;;;;;5048020;28;20553;-45
2022/09/07 04:03:57;;;;;;;9.80;8.77;;;16.90;99.90;;;;;;5048138;28;20087;-46
2022/09/07 04:06:24;;;;;;;8.75;7.97;;;16.90;99.90;;;;;;5047126;28;20051;-45
2022/09/07 04:08:49;;;;;;;10.75;9.52;;;17.00;99.90;;;;;;5047028;28;20045;-45
2022/09/07 04:11:17;;;;;;;9.13;8.23;;;17.00;99.90;;;;;;5046760;28;20056;-47
2022/09/07 04:13:44;;;;;;;9.65;8.35;;;17.00;99.90;;;;;;5048109;28;20083;-46
2022/09/07 04:16:23;;;;;;;10.95;9.85;;;17.00;99.90;;;;;;5047493;28;20515;-46
2022/09/07 04:18:50;;;;;;;9.68;8.70;;;17.00;99.90;;;;;;5048082;28;20052;-45
2022/09/07 04:21:21;;;;;;;9.85;8.93;;;16.90;99.90;;;;;;5047518;28;20076;-45
2022/09/07 04:23:47;;;;;;;11.77;9.60;;;16.90;99.90;;;;;;5034440;28;20130;-47
2022/09/07 04:26:16;;;;;;;10.32;9.32;;;16.90;99.90;;;;;;5046430;28;20048;-46
2022/09/07 04:28:42;;;;;;;12.05;10.25;;;16.80;99.90;;;;;;5028961;28;20059;-46
2022/09/07 04:31:08;;;;;;;10.88;9.82;;;16.80;99.90;;;;;;5047645;28;20072;-46
2022/09/07 04:33:34;;;;;;;11.25;9.10;;;16.80;99.90;;;;;;5048202;28;20563;-45
2022/09/07 04:36:01;;;;;;;12.80;9.68;;;16.70;99.90;;;;;;5047690;28;20510;-46
2022/09/07 04:38:27;;;;;;;13.20;10.15;;;16.60;99.90;;;;;;5047444;28;20052;-45
2022/09/07 04:40:59;;;;;;;10.68;9.68;;;16.60;99.90;;;;;;5047663;28;20041;-45
2022/09/07 04:43:25;;;;;;;13.55;10.75;;;16.50;99.90;;;;;;5029660;28;20418;-45
2022/09/07 04:45:51;;;;;;;11.95;10.10;;;16.50;99.90;;;;;;5042587;28;20045;-45
2022/09/07 04:48:16;;;;;;;10.60;9.70;;;16.50;99.90;;;;;;5025146;28;20064;-46
2022/09/07 04:50:42;;;;;;;10.15;9.13;;;16.40;99.90;;;;;;5043559;28;20045;-45
2022/09/07 04:53:08;;;;;;;11.05;9.88;;;16.40;99.90;;;;;;5044021;28;20065;-48
2022/09/07 04:55:33;;;;;;;10.43;9.18;;;16.40;99.90;;;;;;5043712;28;20045;-45
2022/09/07 04:57:59;;;;;;;11.30;10.18;;;16.40;99.90;;;;;;5045134;28;20045;-45
2022/09/07 05:00:25;;;;;;;10.90;9.23;;;16.30;99.90;;;;;;5044653;28;20053;-47
2022/09/07 05:02:51;;;;;;;11.88;9.77;;;16.30;99.90;;;;;;5045494;28;20796;-45
2022/09/07 05:05:17;;;;;;;10.82;9.70;;;16.20;99.90;;;;;;5046968;28;20048;-46
2022/09/07 05:07:43;;;;;;;11.02;10.02;;;16.30;99.90;;;;;;5044344;28;20405;-49
2022/09/07 05:10:09;;;;;;;10.10;9.10;;;16.30;99.90;;;;;;5043146;28;21810;-46
2022/09/07 05:12:35;;;;;;;22.80;7.22;;;16.20;99.90;;;;;;5044131;28;20052;-45
2022/09/07 05:15:04;;;;;;;26.67;6.50;;;16.30;99.90;;;;;;5043403;28;20049;-48
2022/09/07 05:17:30;;;;;;;7.82;5.57;;;16.20;99.90;;;;;;5043782;28;20053;-45
2022/09/07 05:19:56;;;;;;;7.95;6.57;;;16.20;99.90;;;;;;5043194;28;20056;-45
2022/09/07 05:22:24;;;;;;;8.43;7.72;;;16.10;99.90;;;;;;5043695;28;20044;-45
2022/09/07 05:24:50;;;;;;;8.25;7.45;;;16.20;99.90;;;;;;5041983;28;20640;-45
2022/09/07 05:27:16;;;;;;;9.35;8.55;;;16.20;99.90;;;;;;5043352;28;20052;-45
2022/09/07 05:29:41;;;;;;;10.25;9.35;;;16.20;99.90;;;;;;5043399;28;20094;-45
2022/09/07 05:32:07;;;;;;;11.07;10.18;;;16.30;99.90;;;;;;5043493;28;20077;-46
2022/09/07 05:34:33;;;;;;;12.38;11.15;;;16.30;99.90;;;;;;5042583;28;20045;-46
2022/09/07 05:37:00;;;;;;;11.60;10.40;;;16.40;99.90;;;;;;5043737;28;20049;-45
2022/09/07 05:39:26;;;;;;;11.90;10.70;;;16.40;99.90;;;;;;5024732;28;20161;-47
2022/09/07 05:41:52;;;;;;;11.38;10.25;;;16.50;99.90;;;;;;5042969;28;20136;-45
2022/09/07 05:44:18;;;;;;;12.77;11.50;;;16.50;99.90;;;;;;5041861;28;20457;-46
2022/09/07 05:46:44;;;;;;;12.57;11.30;;;16.60;99.90;;;;;;5042345;28;20045;-45
2022/09/07 05:49:10;;;;;;;13.23;12.07;;;16.60;99.90;;;;;;5042258;28;20587;-45
2022/09/07 05:51:37;;;;;;;12.18;11.07;;;16.70;99.90;;;;;;5042397;28;20052;-45
2022/09/07 05:54:03;;;;;;;14.98;13.43;;;16.70;99.90;;;;;;5041809;28;20551;-45
2022/09/07 05:56:29;;;;;;;13.15;11.95;;;16.80;99.90;;;;;;5042529;28;20127;-45
2022/09/07 05:58:54;;;;;;;12.35;11.25;;;16.80;99.90;;;;;;5043014;28;20045;-46
2022/09/07 06:01:20;;;;;;;13.30;12.18;;;17.00;99.90;;;;;;5042437;28;20049;-45
2022/09/07 06:03:46;;;;;;;11.73;10.70;;;17.00;99.90;;;;;;5041059;28;20502;-45
2022/09/07 06:06:17;;;;;;;13.30;12.02;;;17.10;99.90;;;;;;5041322;28;20053;-45
2022/09/07 06:08:50;;;;;;;13.98;12.73;;;17.10;99.90;;;;;;5042178;28;20572;-45
2022/09/07 06:11:18;;;;;;;12.87;11.60;;;17.10;99.90;;;;;;5042361;28;20053;-45
2022/09/07 06:13:44;;;;;;;11.93;10.93;;;17.10;99.90;;;;;;5041887;28;20044;-46
2022/09/07 06:16:11;;;;;;;12.45;11.40;;;17.10;99.90;;;;;;5042736;28;20041;-45
2022/09/07 06:18:39;;;;;;;12.88;11.63;;;17.10;99.90;;;;;;5043539;28;20055;-45
2022/09/07 06:21:07;;;;;;;13.10;12.00;;;17.10;99.90;;;;;;5042801;28;20785;-45
2022/09/07 06:23:34;;;;;;;13.27;11.90;;;17.20;99.90;;;;;;5041644;28;20392;-45
2022/09/07 06:26:00;;;;;;;11.45;10.52;;;17.10;99.90;;;;;;5043154;28;20106;-45
2022/09/07 06:28:31;;;;;;;11.63;9.77;;;17.10;99.90;;;;;;5045063;28;20052;-46
2022/09/07 06:31:08;;;;;;;11.68;9.98;;;17.20;99.90;;;;;;5042274;28;20049;-51
2022/09/07 06:33:34;;;;;;;9.35;8.57;;;17.20;99.90;;;;;;5041861;28;20410;-44
2022/09/07 06:36:12;;;;;;;9.27;8.38;;;17.40;99.90;;;;;;5041161;28;20546;-45
2022/09/07 06:38:39;;;;;;;13.15;8.50;;;17.40;99.90;;;;;;5042601;28;20056;-45
2022/09/07 06:41:11;;;;;;;9.00;8.10;;;17.50;99.90;;;;;;5023776;28;20656;-46
2022/09/07 06:43:37;;;;;;;11.18;7.90;;;17.50;99.90;;;;;;5041094;28;20079;-45
2022/09/07 06:46:04;;;;;;;8.13;7.32;;;17.50;99.90;;;;;;5039048;28;20045;-45
2022/09/07 06:48:30;;;;;;;8.60;7.80;;;17.60;99.90;;;;;;5023789;28;20061;-46
2022/09/07 06:51:02;;;;;;;9.70;8.70;;;17.60;99.90;;;;;;5031695;28;20052;-45
2022/09/07 06:53:33;;;;;;;10.00;8.10;;;17.70;99.90;;;;;;5038530;28;20065;-46
2022/09/07 06:55:59;;;;;;;9.18;8.27;;;17.70;99.90;;;;;;5040448;28;20102;-46
2022/09/07 06:58:25;;;;;;;9.68;8.77;;;17.80;99.90;;;;;;5040422;28;20045;-46
2022/09/07 07:00:53;;;;;;;10.70;9.52;;;17.80;99.90;;;;;;5040988;28;20412;-48
2022/09/07 07:03:19;;;;;;;9.70;8.82;;;17.90;99.90;;;;;;5039798;28;20467;-48
2022/09/07 07:05:55;;;;;;;10.15;9.15;;;17.80;99.90;;;;;;5039094;28;20094;-45
2022/09/07 07:08:23;;;;;;;12.57;9.15;;;17.90;99.90;;;;;;5038968;28;20053;-46
2022/09/07 07:10:49;;;;;;;12.48;9.98;;;17.90;99.90;;;;;;5040894;28;20583;-45
2022/09/07 07:13:16;;;;;;;11.65;10.55;;;18.00;99.90;;;;;;5022319;28;20052;-45
2022/09/07 07:15:43;;;;;;;12.93;11.70;;;18.00;99.90;;;;;;5041119;28;20052;-45
2022/09/07 07:18:09;;;;;;;11.35;10.40;;;18.10;99.90;;;;;;5041131;28;20052;-45
2022/09/07 07:20:36;;;;;;;14.02;12.73;;;18.20;99.90;;;;;;5041575;28;20041;-45
2022/09/07 07:23:02;;;;;;;15.32;13.77;;;18.40;99.90;;;;;;5040209;28;20138;-45
2022/09/07 07:25:28;;;;;;;16.73;15.00;;;18.50;99.90;;;;;;5039974;28;20049;-47
2022/09/07 07:27:53;;;;;;;15.02;13.48;;;18.40;99.90;;;;;;5022443;28;20506;-45
2022/09/07 07:30:19;;;;;;;16.88;15.27;;;18.50;99.90;;;;;;5041063;28;20041;-45
2022/09/07 07:32:45;;;;;;;17.52;15.85;;;18.60;99.90;;;;;;5007315;28;20081;-45
2022/09/07 07:35:18;;;;;;;19.00;17.20;;;18.70;99.90;;;;;;5041023;28;20067;-46
2022/09/07 07:37:43;;;;;;;19.05;17.35;;;19.00;99.90;;;;;;5041771;28;20504;-52
2022/09/07 07:40:12;;;;;;;18.30;16.73;;;19.00;99.90;;;;;;5038472;28;20047;-45
2022/09/07 07:42:38;;;;;;;19.77;17.75;;;19.10;99.90;;;;;;5036605;28;20125;-49
2022/09/07 07:45:09;;;;;;;19.33;17.50;;;19.20;99.90;;;;;;5037172;28;20068;-49
2022/09/07 07:47:35;;;;;;;22.25;20.10;;;19.30;99.90;;;;;;5040769;28;20111;-45
2022/09/07 07:50:01;;;;;;;22.02;20.08;;;19.30;99.90;;;;;;5041345;28;20081;-46
2022/09/07 07:52:34;;;;;;;23.65;21.58;;;19.50;99.90;;;;;;5042181;28;20195;-50
2022/09/07 07:55:00;;;;;;;;;;;19.60;99.90;;;;;;5041279;28;20053;-46
2022/09/07 07:57:26;;;;;;;23.60;20.90;;;19.60;99.90;;;;;;5041056;28;19921;-45
2022/09/07 07:59:52;;;;;;;22.52;20.38;;;19.70;99.90;;;;;;5041242;28;20107;-46
2022/09/07 08:02:17;;;;;;;21.63;19.73;;;19.90;99.90;;;;;;5041068;28;20803;-47
2022/09/07 08:04:43;;;;;;;21.38;19.40;;;20.10;99.90;;;;;;5039360;28;20068;-47
2022/09/07 08:07:13;;;;;;;19.88;18.27;;;20.40;99.90;;;;;;5041221;28;20052;-47
2022/09/07 08:09:43;;;;;;;18.77;17.20;;;20.60;99.90;;;;;;5041430;28;20053;-47
2022/09/07 08:12:26;;;;;;;18.52;16.85;;;20.60;99.90;;;;;;5030596;28;20619;-47
2022/09/07 08:14:52;;;;;;;19.40;17.63;;;20.50;99.90;;;;;;5027522;28;20080;-47
2022/09/07 08:17:19;;;;;;;18.70;16.95;;;20.40;99.90;;;;;;5035920;28;20086;-48
2022/09/07 08:19:44;;;;;;;19.67;17.98;;;20.20;99.90;;;;;;5042993;28;20056;-46
2022/09/07 08:22:11;;;;;;;19.08;17.52;;;20.10;99.90;;;;;;5046113;28;20057;-48
2022/09/07 08:24:37;;;;;;;18.38;16.67;;;19.90;99.90;;;;;;5047834;28;20045;-47
2022/09/07 08:27:03;;;;;;;19.15;17.42;;;19.80;99.90;;;;;;5011728;28;20064;-47
2022/09/07 08:29:30;;;;;;;17.02;15.52;;;19.80;99.90;;;;;;5029993;28;20048;-49
2022/09/07 08:32:05;;;;;;;16.40;15.00;;;19.90;99.90;;;;;;5031321;28;20413;-50
2022/09/07 08:34:35;;;;;;;16.25;14.65;;;20.10;99.90;;;;;;5030367;28;20084;-46
2022/09/07 08:37:01;;;;;;;15.82;14.25;;;20.20;99.90;;;;;;5048287;28;20059;-47
2022/09/07 08:39:27;;;;;;;15.30;13.95;;;20.60;99.90;;;;;;5048065;28;20044;-46
2022/09/07 08:42:09;;;;;;;14.80;13.52;;;21.00;99.90;;;;;;5047551;28;20146;-49
2022/09/07 08:44:59;;;;;;;14.45;13.20;;;21.20;99.90;;;;;;5047134;28;20102;-47
2022/09/07 08:47:49;;;;;;;15.25;13.75;;;21.40;99.90;;;;;;5029556;28;20128;-49
2022/09/07 08:50:38;;;;;;;12.38;11.00;;;21.60;99.90;;;;;;5047667;28;20059;-48
2022/09/07 08:53:13;;;;;;;11.55;10.57;;;21.80;99.90;;;;;;5045473;28;20544;-47
2022/09/07 08:55:46;;;;;;;8.48;7.65;;;21.90;99.90;;;;;;5048138;28;20187;-52
2022/09/07 08:58:27;;;;;;;7.63;6.82;;;21.90;99.90;;;;;;5047239;28;20055;-47
2022/09/07 09:00:54;;;;;;;9.75;7.22;;;21.90;99.90;;;;;;5046539;28;20106;-48
2022/09/07 09:03:28;;;;;;;7.40;6.60;;;21.90;99.90;;;;;;5045988;28;20048;-50
2022/09/07 09:06:32;;;;;;;7.28;6.53;;;21.80;99.90;;;;;;5047514;28;20049;-49
2022/09/07 09:09:36;;;;;;;9.00;7.82;;;21.70;99.90;;;;;;5046846;28;20160;-47
2022/09/07 09:12:14;;;;;;;6.97;6.35;;;21.80;99.90;;;;;;5047005;28;20114;-48
2022/09/07 09:15:19;;;;;;;7.50;6.35;;;21.90;99.90;;;;;;5046768;28;20195;-49
2022/09/07 09:18:07;;;;;;;7.50;6.63;;;21.90;99.90;;;;;;5039940;28;20128;-50
2022/09/07 09:20:58;;;;;;;7.00;6.30;;;22.10;99.90;;;;;;5045373;28;20080;-50
2022/09/07 09:23:36;;;;;;;6.30;5.80;;;22.30;99.90;;;;;;5044261;28;20052;-47
2022/09/07 09:26:12;;;;;;;5.82;5.20;;;22.40;99.90;;;;;;5046658;28;20131;-48
2022/09/07 09:28:38;;;;;;;7.60;6.40;;;22.30;99.90;;;;;;5046911;28;20053;-48
2022/09/07 09:31:05;;;;;;;7.95;6.13;;;22.40;99.90;;;;;;5045446;28;20869;-51
2022/09/07 09:33:31;;;;;;;5.93;5.32;;;22.50;99.90;;;;;;5045771;28;20088;-52
2022/09/07 09:36:01;;;;;;;5.80;4.82;;;22.70;99.90;;;;;;5046422;28;20041;-49
2022/09/07 09:38:42;;;;;;;5.68;4.60;;;22.70;99.90;;;;;;5046421;28;20053;-48
2022/09/07 09:41:11;;;;;;;5.82;4.30;;;22.80;99.90;;;;;;5042376;28;20053;-49
2022/09/07 09:43:56;;;;;;;4.43;4.00;;;22.50;99.90;;;;;;5045727;28;20084;-49
2022/09/07 09:46:34;;;;;;;4.60;4.15;;;22.50;99.90;;;;;;5046443;28;20044;-49
2022/09/07 09:49:05;;;;;;;6.25;4.43;;;22.50;99.90;;;;;;5046346;28;20049;-50
2022/09/07 09:51:44;;;;;;;4.25;3.85;;;22.50;99.90;;;;;;5046287;28;20124;-50
2022/09/07 09:54:28;;;;;;;4.88;3.50;;;22.50;99.90;;;;;;5046531;28;20061;-48
2022/09/07 09:56:55;;;;;;;6.78;4.30;;;22.80;99.90;;;;;;5028365;28;20053;-49
2022/09/07 09:59:26;;;;;;;5.40;4.03;;;22.90;99.90;;;;;;5046213;28;20523;-49
2022/09/07 10:01:52;;;;;;;4.43;4.00;;;23.00;99.90;;;;;;5045647;28;20067;-49
2022/09/07 10:04:29;;;;;;;5.15;3.70;;;23.00;99.90;;;;;;5046154;28;20411;-50
2022/09/07 10:07:19;;;;;;;4.38;3.33;;;22.90;99.90;;;;;;5046137;28;20103;-49
2022/09/07 10:09:51;;;;;;;5.85;3.65;;;22.60;99.90;;;;;;5045629;28;20055;-51
2022/09/07 10:12:36;;;;;;;4.32;3.65;;;22.50;99.90;;;;;;5037220;28;20235;-49
2022/09/07 10:15:05;;;;;;;3.78;3.40;;;22.40;99.90;;;;;;5045953;28;20052;-50
2022/09/07 10:17:37;;;;;;;5.15;4.72;;;22.60;99.90;;;;;;5046104;28;20109;-48
2022/09/07 10:20:30;;;;;;;6.40;3.58;;;22.70;99.90;;;;;;5044839;28;20124;-50
2022/09/07 10:22:58;;;;;;;4.68;3.90;;;22.70;99.90;;;;;;5045584;28;20467;-47
2022/09/07 10:25:35;;;;;;;4.63;4.00;;;22.80;99.90;;;;;;5045216;28;20171;-51
2022/09/07 10:28:11;;;;;;;4.65;3.72;;;23.00;99.90;;;;;;5046490;28;20681;-52
2022/09/07 10:30:46;;;;;;;4.18;3.72;;;23.10;99.90;;;;;;5045613;28;20128;-51
2022/09/07 10:33:30;;;;;;;4.28;3.80;;;23.10;99.90;;;;;;5045723;28;20049;-48
2022/09/07 10:36:15;;;;;;;5.22;3.97;;;23.10;99.90;;;;;;5045643;28;20052;-50
2022/09/07 10:38:48;;;;;;;6.75;5.50;;;23.20;99.90;;;;;;5045247;28;20071;-49
2022/09/07 10:41:17;;;;;;;5.07;3.92;;;23.40;99.90;;;;;;5044780;28;20211;-49
2022/09/07 10:43:47;;;;;;;4.68;3.70;;;23.50;99.90;;;;;;5045061;28;20075;-58
2022/09/07 10:46:19;;;;;;;5.40;4.65;;;23.50;99.90;;;;;;5044586;28;20451;-53
2022/09/07 10:49:20;;;;;;;8.68;4.05;;;23.50;99.90;;;;;;5046222;28;20060;-51
2022/09/07 10:52:07;;;;;;;5.95;3.92;;;23.70;99.90;;;;;;5044590;28;20052;-47
2022/09/07 10:54:53;;;;;;;4.75;3.75;;;23.90;99.90;;;;;;5045083;28;20520;-48
2022/09/07 10:57:50;;;;;;;5.07;3.47;;;23.90;99.90;;;;;;5045283;28;20122;-49
2022/09/07 11:00:23;;;;;;;3.97;2.95;;;24.00;99.90;;;;;;5044861;28;20049;-49
2022/09/07 11:02:49;;;;;;;;;;;23.90;99.90;;;;;;5044985;28;20124;-48
2022/09/07 11:05:47;;;;;;;3.78;3.00;;;23.90;99.90;;;;;;5044969;28;19951;-48
2022/09/07 11:08:26;;;;;;;4.15;3.15;;;23.90;99.90;;;;;;5038776;28;20068;-48
2022/09/07 11:11:06;;;;;;;4.45;3.10;;;23.90;99.90;;;;;;5045720;28;20404;-49
2022/09/07 11:13:38;;;;;;;5.43;2.97;;;24.00;99.90;;;;;;5043975;28;20806;-49
2022/09/07 11:16:14;;;;;;;5.40;3.00;;;24.00;99.90;;;;;;5044640;28;20049;-48
2022/09/07 11:18:59;;;;;;;3.70;3.10;;;24.10;99.90;;;;;;5025140;28;20052;-48
2022/09/07 11:21:35;;;;;;;4.07;3.00;;;24.20;99.90;;;;;;5043108;28;20152;-48
2022/09/07 11:24:28;;;;;;;5.22;3.03;;;24.10;99.90;;;;;;5041686;28;20484;-48
2022/09/07 11:27:10;;;;;;;4.30;3.33;;;24.10;99.90;;;;;;4963179;28;20058;-47
2022/09/07 11:29:46;;;;;;;3.85;3.00;;;24.10;99.90;;;;;;4963244;28;20090;-48
2022/09/07 11:32:20;;;;;;;4.22;3.17;;;24.10;99.90;;;;;;4963483;28;20130;-48
2022/09/07 11:35:06;;;;;;;4.22;3.00;;;24.10;99.90;;;;;;4946853;28;20146;-50
2022/09/07 11:37:37;;;;;;;5.15;2.75;;;24.20;99.90;;;;;;4961336;28;20063;-51
2022/09/07 11:40:32;;;;;;;3.10;2.47;;;24.30;99.90;;;;;;4962761;28;20058;-52
2022/09/07 11:43:30;;;;;;;4.60;2.92;;;24.30;99.90;;;;;;4963649;28;20050;-49
2022/09/07 11:46:05;;;;;;;3.95;2.30;;;24.40;99.90;;;;;;4963146;28;20051;-49
2022/09/07 11:48:56;;;;;;;3.55;2.72;;;24.30;99.90;;;;;;4947223;28;20058;-51
2022/09/07 11:51:31;;;;;;;4.32;2.80;;;24.30;99.90;;;;;;4933900;28;20272;-52
2022/09/07 11:54:23;;;;;;;2.83;2.53;;;24.30;99.90;;;;;;4962761;28;20165;-50
2022/09/07 11:57:18;;;;;;;4.05;2.70;;;24.30;99.90;;;;;;4963785;28;20117;-51
2022/09/07 12:00:00;;;;;;;3.42;2.90;;;24.20;99.90;;;;;;4920831;29;20640;-49
2022/09/07 12:03:04;;;;;;;4.68;3.38;;;24.20;99.90;;;;;;4928079;29;20063;-49
2022/09/07 12:05:42;;;;;;;3.75;3.22;;;24.20;99.90;;;;;;4927638;29;20121;-48
2022/09/07 12:08:20;;;;;;;3.88;3.20;;;24.00;99.90;;;;;;4927675;29;20048;-47
2022/09/07 12:11:10;;;;;;;5.10;3.60;;;23.90;99.90;;;;;;4927792;29;20892;-49
2022/09/07 12:13:52;;;;;;;4.78;3.83;;;23.80;99.90;;;;;;4928605;29;20238;-51
2022/09/07 12:16:50;;;;;;;5.05;3.58;;;24.00;99.90;;;;;;4926930;29;20070;-52
2022/09/07 12:19:23;;;;;;;5.57;3.55;;;24.20;99.90;;;;;;4928393;29;20110;-51
2022/09/07 12:21:52;;;;;;;4.60;3.90;;;24.10;99.90;;;;;;4928055;29;20063;-52
2022/09/07 12:24:43;;;;;;;4.38;3.80;;;24.20;99.90;;;;;;4928598;29;20063;-48
2022/09/07 12:27:30;;;;;;;4.00;3.60;;;24.10;99.90;;;;;;4920171;29;20043;-50
2022/09/07 12:29:56;;;;;;;4.40;3.50;;;24.10;99.90;;;;;;4927661;29;20539;-50
2022/09/07 12:32:46;;;;;;;4.75;4.05;;;24.00;99.90;;;;;;4927774;29;20047;-50
2022/09/07 12:35:32;;;;;;;3.67;3.22;;;24.10;99.90;;;;;;4928456;29;20107;-51
2022/09/07 12:38:00;;;;;;;4.88;4.38;;;24.30;99.90;;;;;;4962431;28;20058;-49
2022/09/07 12:40:27;;;;;;;5.20;4.53;;;24.40;99.90;;;;;;4965657;28;20051;-49
2022/09/07 12:43:12;;;;;;;4.68;3.67;;;24.70;99.90;;;;;;5009361;28;20075;-50
2022/09/07 12:45:38;;;;;;;7.32;4.25;;;24.90;99.90;;;;;;5028032;28;20796;-50
2022/09/07 12:48:17;;;;;;;4.65;3.15;;;25.10;99.90;;;;;;5019980;28;20732;-50
2022/09/07 12:50:57;;;;;;;4.18;3.45;;;25.30;99.90;;;;;;5021472;28;20460;-52
2022/09/07 12:53:42;;;;;;;5.57;4.97;;;25.20;99.90;;;;;;5022376;28;20233;-51
2022/09/07 12:56:43;;;;;;;3.92;3.30;;;25.20;99.90;;;;;;5026495;28;20618;-49
2022/09/07 12:59:34;;;;;;;2.33;2.03;;;25.20;99.90;;;;;;5002213;28;20262;-50
2022/09/07 13:02:26;;;;;;;2.60;2.38;;;25.10;99.90;;;;;;5004733;28;20089;-50
2022/09/07 13:05:26;;;;;;;3.07;2.33;;;25.10;99.90;;;;;;5004950;28;20124;-50
2022/09/07 13:08:30;;;;;;;2.83;2.05;;;25.20;99.90;;;;;;5003872;28;20083;-48
2022/09/07 13:11:29;;;;;;;1.98;1.70;;;25.30;99.90;;;;;;5004469;28;20100;-49